sensor_id;sensor_type;location;lat;lon;timestamp;temperature;humidity
67165;SHT31;54093;50.014;19.984;2023-05-02T00:05:13;9.78;66.80
67165;SHT31;54093;50.014;19.984;2023-05-02T00:14:34;9.56;67.68
67165;SHT31;54093;50.014;19.984;2023-05-02T00:23:55;9.26;69.04
67165;SHT31;54093;50.014;19.984;2023-05-02T00:33:19;9.16;68.76
67165;SHT31;54093;50.014;19.984;2023-05-02T00:42:40;9.32;68.81
67165;SHT31;54093;50.014;19.984;2023-05-02T00:52:01;9.30;68.69
67165;SHT31;54093;50.014;19.984;2023-05-02T01:02:02;9.33;68.63
67165;SHT31;54093;50.014;19.984;2023-05-02T01:11:47;9.28;69.56
67165;SHT31;54093;50.014;19.984;2023-05-02T01:21:11;9.26;69.36
67165;SHT31;54093;50.014;19.984;2023-05-02T01:30:35;9.29;69.21
67165;SHT31;54093;50.014;19.984;2023-05-02T01:39:58;8.97;70.14
67165;SHT31;54093;50.014;19.984;2023-05-02T01:49:22;8.98;70.03
67165;SHT31;54093;50.014;19.984;2023-05-02T01:58:45;8.87;70.14
67165;SHT31;54093;50.014;19.984;2023-05-02T02:08:07;8.78;70.43
67165;SHT31;54093;50.014;19.984;2023-05-02T02:17:38;8.68;70.27
67165;SHT31;54093;50.014;19.984;2023-05-02T02:26:59;8.53;70.07
67165;SHT31;54093;50.014;19.984;2023-05-02T02:36:25;8.34;70.69
67165;SHT31;54093;50.014;19.984;2023-05-02T02:45:58;8.23;70.72
67165;SHT31;54093;50.014;19.984;2023-05-02T02:55:32;8.14;71.16
67165;SHT31;54093;50.014;19.984;2023-05-02T03:04:56;7.98;71.61
67165;SHT31;54093;50.014;19.984;2023-05-02T03:14:18;8.02;71.00
67165;SHT31;54093;50.014;19.984;2023-05-02T03:23:38;7.88;71.38
67165;SHT31;54093;50.014;19.984;2023-05-02T03:32:59;7.95;71.93
67165;SHT31;54093;50.014;19.984;2023-05-02T03:42:21;7.78;72.22
67165;SHT31;54093;50.014;19.984;2023-05-02T03:51:42;7.88;72.07
67165;SHT31;54093;50.014;19.984;2023-05-02T04:01:03;7.81;72.60
67165;SHT31;54093;50.014;19.984;2023-05-02T04:10:24;7.99;72.41
67165;SHT31;54093;50.014;19.984;2023-05-02T04:19:45;7.98;72.58
67165;SHT31;54093;50.014;19.984;2023-05-02T04:29:06;8.12;72.82
67165;SHT31;54093;50.014;19.984;2023-05-02T04:38:26;8.25;72.94
67165;SHT31;54093;50.014;19.984;2023-05-02T04:47:47;8.37;72.98
67165;SHT31;54093;50.014;19.984;2023-05-02T04:57:08;8.57;72.84
67165;SHT31;54093;50.014;19.984;2023-05-02T05:06:29;8.84;72.32
67165;SHT31;54093;50.014;19.984;2023-05-02T05:15:51;9.23;75.44
67165;SHT31;54093;50.014;19.984;2023-05-02T05:25:12;9.80;73.29
67165;SHT31;54093;50.014;19.984;2023-05-02T05:34:33;10.94;71.23
67165;SHT31;54093;50.014;19.984;2023-05-02T05:43:54;11.93;64.75
67165;SHT31;54093;50.014;19.984;2023-05-02T05:53:15;13.05;68.67
67165;SHT31;54093;50.014;19.984;2023-05-02T06:02:36;13.77;66.16
67165;SHT31;54093;50.014;19.984;2023-05-02T06:11:57;14.51;65.08
67165;SHT31;54093;50.014;19.984;2023-05-02T06:21:18;15.77;44.01
67165;SHT31;54093;50.014;19.984;2023-05-02T06:30:39;16.14;44.34
67165;SHT31;54093;50.014;19.984;2023-05-02T06:40:01;16.86;44.12
67165;SHT31;54093;50.014;19.984;2023-05-02T06:49:22;17.47;42.72
67165;SHT31;54093;50.014;19.984;2023-05-02T06:58:43;17.51;41.08
67165;SHT31;54093;50.014;19.984;2023-05-02T07:08:04;17.40;40.26
67165;SHT31;54093;50.014;19.984;2023-05-02T07:17:26;17.44;41.29
67165;SHT31;54093;50.014;19.984;2023-05-02T07:26:47;17.91;40.84
67165;SHT31;54093;50.014;19.984;2023-05-02T07:36:08;17.57;42.09
67165;SHT31;54093;50.014;19.984;2023-05-02T07:45:28;17.26;42.68
67165;SHT31;54093;50.014;19.984;2023-05-02T07:54:50;17.06;43.95
67165;SHT31;54093;50.014;19.984;2023-05-02T08:04:11;16.83;45.61
67165;SHT31;54093;50.014;19.984;2023-05-02T08:13:32;16.66;46.86
67165;SHT31;54093;50.014;19.984;2023-05-02T08:22:53;16.65;48.37
67165;SHT31;54093;50.014;19.984;2023-05-02T08:32:14;17.07;48.94
67165;SHT31;54093;50.014;19.984;2023-05-02T08:41:35;17.86;47.73
67165;SHT31;54093;50.014;19.984;2023-05-02T08:50:56;18.32;46.57
67165;SHT31;54093;50.014;19.984;2023-05-02T09:00:18;18.61;46.26
67165;SHT31;54093;50.014;19.984;2023-05-02T09:09:39;19.01;45.98
67165;SHT31;54093;50.014;19.984;2023-05-02T09:19:00;19.18;45.88
67165;SHT31;54093;50.014;19.984;2023-05-02T09:28:37;19.49;45.66
67165;SHT31;54093;50.014;19.984;2023-05-02T09:37:58;19.35;44.88
67165;SHT31;54093;50.014;19.984;2023-05-02T09:47:25;19.12;45.98
67165;SHT31;54093;50.014;19.984;2023-05-02T09:56:56;19.23;47.07
67165;SHT31;54093;50.014;19.984;2023-05-02T10:06:17;20.33;44.18
67165;SHT31;54093;50.014;19.984;2023-05-02T10:15:42;21.15;40.89
67165;SHT31;54093;50.014;19.984;2023-05-02T10:25:04;21.52;40.50
67165;SHT31;54093;50.014;19.984;2023-05-02T10:34:26;21.81;40.73
67165;SHT31;54093;50.014;19.984;2023-05-02T10:43:48;21.93;41.25
67165;SHT31;54093;50.014;19.984;2023-05-02T11:02:47;22.63;38.00
67165;SHT31;54093;50.014;19.984;2023-05-02T11:12:08;22.32;38.61
67165;SHT31;54093;50.014;19.984;2023-05-02T11:21:29;22.27;41.03
67165;SHT31;54093;50.014;19.984;2023-05-02T11:30:52;22.94;38.66
67165;SHT31;54093;50.014;19.984;2023-05-02T11:40:13;22.85;39.61
67165;SHT31;54093;50.014;19.984;2023-05-02T11:49:35;22.61;38.43
67165;SHT31;54093;50.014;19.984;2023-05-02T11:59:01;22.33;39.93
67165;SHT31;54093;50.014;19.984;2023-05-02T12:08:27;22.92;39.87
67165;SHT31;54093;50.014;19.984;2023-05-02T12:17:48;22.75;37.65
67165;SHT31;54093;50.014;19.984;2023-05-02T12:27:15;22.32;39.09
67165;SHT31;54093;50.014;19.984;2023-05-02T12:36:43;21.26;49.89
67165;SHT31;54093;50.014;19.984;2023-05-02T12:46:09;19.64;60.16
67165;SHT31;54093;50.014;19.984;2023-05-02T12:55:30;18.88;64.80
67165;SHT31;54093;50.014;19.984;2023-05-02T13:04:54;18.26;64.20
67165;SHT31;54093;50.014;19.984;2023-05-02T13:14:14;18.13;64.59
67165;SHT31;54093;50.014;19.984;2023-05-02T13:23:35;17.89;65.88
67165;SHT31;54093;50.014;19.984;2023-05-02T13:32:56;17.60;64.11
67165;SHT31;54093;50.014;19.984;2023-05-02T13:42:18;17.33;68.68
67165;SHT31;54093;50.014;19.984;2023-05-02T13:51:39;16.71;63.82
67165;SHT31;54093;50.014;19.984;2023-05-02T14:01:00;15.85;68.63
67165;SHT31;54093;50.014;19.984;2023-05-02T14:10:21;15.36;70.65
67165;SHT31;54093;50.014;19.984;2023-05-02T14:19:42;15.22;71.34
67165;SHT31;54093;50.014;19.984;2023-05-02T14:29:02;15.01;72.37
67165;SHT31;54093;50.014;19.984;2023-05-02T14:38:23;14.97;72.50
67165;SHT31;54093;50.014;19.984;2023-05-02T14:47:44;15.17;72.73
67165;SHT31;54093;50.014;19.984;2023-05-02T14:57:05;15.09;73.33
67165;SHT31;54093;50.014;19.984;2023-05-02T15:06:28;15.19;73.02
67165;SHT31;54093;50.014;19.984;2023-05-02T15:15:51;15.15;73.74
67165;SHT31;54093;50.014;19.984;2023-05-02T15:25:13;14.79;73.90
67165;SHT31;54093;50.014;19.984;2023-05-02T15:34:38;14.88;72.76
67165;SHT31;54093;50.014;19.984;2023-05-02T15:44:00;14.76;73.06
67165;SHT31;54093;50.014;19.984;2023-05-02T15:53:21;14.97;73.67
67165;SHT31;54093;50.014;19.984;2023-05-02T16:02:42;15.09;76.19
67165;SHT31;54093;50.014;19.984;2023-05-02T16:12:04;15.21;76.05
67165;SHT31;54093;50.014;19.984;2023-05-02T16:21:25;15.22;74.10
67165;SHT31;54093;50.014;19.984;2023-05-02T16:30:46;15.29;76.08
67165;SHT31;54093;50.014;19.984;2023-05-02T16:40:08;15.39;75.42
67165;SHT31;54093;50.014;19.984;2023-05-02T16:49:29;15.17;77.53
67165;SHT31;54093;50.014;19.984;2023-05-02T16:58:50;14.98;77.22
67165;SHT31;54093;50.014;19.984;2023-05-02T17:08:11;14.76;77.92
67165;SHT31;54093;50.014;19.984;2023-05-02T17:17:33;14.71;77.97
67165;SHT31;54093;50.014;19.984;2023-05-02T17:26:54;14.57;78.59
67165;SHT31;54093;50.014;19.984;2023-05-02T17:36:15;14.26;80.45
67165;SHT31;54093;50.014;19.984;2023-05-02T17:45:36;14.19;80.25
67165;SHT31;54093;50.014;19.984;2023-05-02T17:54:59;14.00;80.85
67165;SHT31;54093;50.014;19.984;2023-05-02T18:04:20;13.88;79.80
67165;SHT31;54093;50.014;19.984;2023-05-02T18:13:41;13.65;78.72
67165;SHT31;54093;50.014;19.984;2023-05-02T18:23:02;13.51;79.04
67165;SHT31;54093;50.014;19.984;2023-05-02T18:32:25;13.55;79.06
67165;SHT31;54093;50.014;19.984;2023-05-02T18:41:46;13.68;78.14
67165;SHT31;54093;50.014;19.984;2023-05-02T18:51:07;13.68;77.99
67165;SHT31;54093;50.014;19.984;2023-05-02T19:00:29;13.54;79.01
67165;SHT31;54093;50.014;19.984;2023-05-02T19:09:51;13.44;79.67
67165;SHT31;54093;50.014;19.984;2023-05-02T19:19:12;13.20;81.02
67165;SHT31;54093;50.014;19.984;2023-05-02T19:28:32;13.15;81.18
67165;SHT31;54093;50.014;19.984;2023-05-02T19:37:53;13.27;80.32
67165;SHT31;54093;50.014;19.984;2023-05-02T19:47:14;13.10;81.47
67165;SHT31;54093;50.014;19.984;2023-05-02T19:56:35;13.03;81.51
67165;SHT31;54093;50.014;19.984;2023-05-02T20:05:56;12.95;81.43
67165;SHT31;54093;50.014;19.984;2023-05-02T20:15:17;12.89;81.65
67165;SHT31;54093;50.014;19.984;2023-05-02T20:24:38;12.79;81.98
67165;SHT31;54093;50.014;19.984;2023-05-02T20:33:59;12.75;82.24
67165;SHT31;54093;50.014;19.984;2023-05-02T20:43:21;12.81;81.78
67165;SHT31;54093;50.014;19.984;2023-05-02T20:52:42;12.65;82.76
67165;SHT31;54093;50.014;19.984;2023-05-02T21:02:04;12.62;82.72
67165;SHT31;54093;50.014;19.984;2023-05-02T21:11:25;12.57;82.94
67165;SHT31;54093;50.014;19.984;2023-05-02T21:20:49;12.54;82.96
67165;SHT31;54093;50.014;19.984;2023-05-02T21:30:10;12.47;83.09
67165;SHT31;54093;50.014;19.984;2023-05-02T21:39:31;12.40;83.14
67165;SHT31;54093;50.014;19.984;2023-05-02T21:48:52;12.34;83.18
67165;SHT31;54093;50.014;19.984;2023-05-02T21:58:13;12.48;82.39
67165;SHT31;54093;50.014;19.984;2023-05-02T22:07:34;12.40;82.42
67165;SHT31;54093;50.014;19.984;2023-05-02T22:16:56;12.33;82.90
67165;SHT31;54093;50.014;19.984;2023-05-02T22:26:18;12.28;82.88
67165;SHT31;54093;50.014;19.984;2023-05-02T22:35:38;12.21;83.10
67165;SHT31;54093;50.014;19.984;2023-05-02T22:45:00;12.12;83.21
67165;SHT31;54093;50.014;19.984;2023-05-02T22:54:21;12.14;83.16
67165;SHT31;54093;50.014;19.984;2023-05-02T23:03:42;12.13;83.37
67165;SHT31;54093;50.014;19.984;2023-05-02T23:13:03;12.21;82.99
67165;SHT31;54093;50.014;19.984;2023-05-02T23:22:24;12.30;82.17
67165;SHT31;54093;50.014;19.984;2023-05-02T23:31:47;12.36;81.25
67165;SHT31;54093;50.014;19.984;2023-05-02T23:41:08;12.23;82.26
67165;SHT31;54093;50.014;19.984;2023-05-02T23:50:31;12.07;82.85
67165;SHT31;54093;50.014;19.984;2023-05-02T23:59:52;11.97;83.42
